Weather observations for the past three days for
Tuscaloosa Regional Airport
Metric (Imperial)
Date Time (cdt) Wind (kph) Vis. (km) Weather Sky Cond. Temperature (ºC) Relative Humidity Wind Chill (°C) Heat Index (°C) Pressure Precipitation (cm)
Air Dwpt 6 hour altimeter (cm) sea level (mb) 1 hr 3 hr 6 hr
Max. Min.
08 19:53 SE 7 16.09 Fair CLR 17.8 13.3 75% 75.95 1012.3
08 18:53 SE 9 16.09 Fair CLR 18.3 12.8 20 18.3 70% 75.97 1012.5
08 17:53 SE 6 16.09 Fair CLR 18.3 12.2 68% 76.05 1013.6
08 16:53 SW 9 16.09 Fair CLR 18.9 12.8 68% 76.05 1013.8
08 15:53 S 15 16.09 Fair CLR 19.4 12.2 63% 76.1 1014.3
08 14:53 SE 7 16.09 Fair CLR 19.4 11.7 61% 76.12 1014.6
08 13:53 E 11 16.09 Fair CLR 20 11.1 57% 76.12 1014.7
08 12:53 E 7 16.09 Fair CLR 19.4 11.1 20 13.3 59% 76.17 1015.2
08 11:53 SE 7 16.09 Fair CLR 20 10 53% 76.28 1016.6
08 10:53 E 9 16.09 Fair CLR 19.4 10.6 57% 76.3 1016.9
08 08:53 NE 9 16.09 Fair CLR 16 12 77% 76.35 0.0
08 07:53 Calm 16.09 Fair CLR 14 11 82% 76.35 0.0
08 06:53 N 7 16.09 Fair CLR 13 11 88% 76.3 0.0
07 10:53 N 9 16.09 Overcast OVC009 16 16 100% 76.17 0.0
07 06:53 NW 9 4.02 Rain Fog/Mist BKN008 BKN013 OVC033 14 14 100% 76.02 0.0
06 18:53 SW 7 12.87 Light Rain BKN019 BKN049 OVC100 23 22 94% 75.84 0.0
06 17:53 S 13 16.09 Mostly Cloudy BKN016 24 24 100% 23 75.82 0.0
06 16:53 S 15 14.48 Overcast SCT010 OVC060 24 24 100% 23 75.79 0.0
06 15:53 S 15 11.27 Light Rain FEW011 OVC060 23 22 94% 75.84 0.0
06 14:53 S 13 14.48 Overcast FEW019 SCT050 OVC060 24 24 100% 23 75.9 0.0
06 09:53 S 15 16.09 Mostly Cloudy SCT022 BKN065 BKN085 25 19 69% 26 76.02 0.0
06 07:53 S 11 14.48 Overcast SCT030 OVC075 21 18 83% 76.05 0.0
06 06:53 S 13 16.09 Overcast SCT044 OVC070 21 18 83% 76.02 0.0
Date Time (cdt) Wind (kph) Vis. (km) Weather Sky Cond. Air Dwpt Max. Min. Relative Humidity Wind Chill (°C) Heat Index (°C) altimeter (cm) sea level (mb) 1 hr 3 hr 6 hr
6 hour
Temperature (ºC) Pressure Precipitation (cm)